sensor_id;sensor_type;location;lat;lon;timestamp;P1;durP1;ratioP1;P2;durP2;ratioP2
7931;SDS011;4011;49.424;10.894;2023-05-16T00:00:35;4.03;;;3.08;;
7931;SDS011;4011;49.424;10.894;2023-05-16T00:05:57;3.97;;;2.92;;
7931;SDS011;4011;49.424;10.894;2023-05-16T00:11:20;3.28;;;2.83;;
7931;SDS011;4011;49.424;10.894;2023-05-16T00:16:42;4.47;;;3.70;;
7931;SDS011;4011;49.424;10.894;2023-05-16T00:22:04;4.03;;;2.70;;
7931;SDS011;4011;49.424;10.894;2023-05-16T00:27:27;4.25;;;3.20;;
7931;SDS011;4011;49.424;10.894;2023-05-16T00:32:48;4.05;;;3.05;;
7931;SDS011;4011;49.424;10.894;2023-05-16T00:38:10;5.10;;;3.92;;
7931;SDS011;4011;49.424;10.894;2023-05-16T00:43:33;4.03;;;3.13;;
7931;SDS011;4011;49.424;10.894;2023-05-16T00:48:55;3.60;;;2.70;;
7931;SDS011;4011;49.424;10.894;2023-05-16T00:54:17;3.80;;;3.15;;
7931;SDS011;4011;49.424;10.894;2023-05-16T00:59:40;3.60;;;3.10;;
7931;SDS011;4011;49.424;10.894;2023-05-16T01:05:03;4.32;;;3.10;;
7931;SDS011;4011;49.424;10.894;2023-05-16T01:10:26;3.63;;;2.80;;
7931;SDS011;4011;49.424;10.894;2023-05-16T01:15:54;3.55;;;2.85;;
7931;SDS011;4011;49.424;10.894;2023-05-16T01:21:18;3.65;;;3.20;;
7931;SDS011;4011;49.424;10.894;2023-05-16T01:26:46;4.72;;;3.10;;
7931;SDS011;4011;49.424;10.894;2023-05-16T01:32:08;3.80;;;3.30;;
7931;SDS011;4011;49.424;10.894;2023-05-16T01:37:31;4.18;;;2.85;;
7931;SDS011;4011;49.424;10.894;2023-05-16T01:42:58;4.10;;;3.63;;
7931;SDS011;4011;49.424;10.894;2023-05-16T01:48:21;4.00;;;3.10;;
7931;SDS011;4011;49.424;10.894;2023-05-16T01:53:43;4.38;;;3.20;;
7931;SDS011;4011;49.424;10.894;2023-05-16T01:59:06;4.78;;;3.17;;
7931;SDS011;4011;49.424;10.894;2023-05-16T02:04:29;4.18;;;3.72;;
7931;SDS011;4011;49.424;10.894;2023-05-16T02:09:50;3.80;;;3.10;;
7931;SDS011;4011;49.424;10.894;2023-05-16T02:15:15;3.78;;;3.05;;
7931;SDS011;4011;49.424;10.894;2023-05-16T02:20:37;3.72;;;3.13;;
7931;SDS011;4011;49.424;10.894;2023-05-16T02:25:59;4.68;;;4.05;;
7931;SDS011;4011;49.424;10.894;2023-05-16T02:31:25;4.25;;;3.40;;
7931;SDS011;4011;49.424;10.894;2023-05-16T02:36:47;4.20;;;3.45;;
7931;SDS011;4011;49.424;10.894;2023-05-16T02:42:09;3.45;;;2.72;;
7931;SDS011;4011;49.424;10.894;2023-05-16T02:47:33;4.45;;;3.95;;
7931;SDS011;4011;49.424;10.894;2023-05-16T02:52:54;4.03;;;3.50;;
7931;SDS011;4011;49.424;10.894;2023-05-16T02:58:16;4.05;;;3.20;;
7931;SDS011;4011;49.424;10.894;2023-05-16T03:03:39;4.38;;;3.35;;
7931;SDS011;4011;49.424;10.894;2023-05-16T03:09:00;4.10;;;3.70;;
7931;SDS011;4011;49.424;10.894;2023-05-16T03:14:22;4.20;;;3.80;;
7931;SDS011;4011;49.424;10.894;2023-05-16T03:19:44;3.75;;;3.20;;
7931;SDS011;4011;49.424;10.894;2023-05-16T03:25:07;4.53;;;3.60;;
7931;SDS011;4011;49.424;10.894;2023-05-16T03:30:28;3.95;;;3.35;;
7931;SDS011;4011;49.424;10.894;2023-05-16T03:35:51;4.57;;;3.97;;
7931;SDS011;4011;49.424;10.894;2023-05-16T03:41:12;3.75;;;3.10;;
7931;SDS011;4011;49.424;10.894;2023-05-16T03:46:34;3.90;;;2.83;;
7931;SDS011;4011;49.424;10.894;2023-05-16T03:51:57;4.22;;;3.40;;
7931;SDS011;4011;49.424;10.894;2023-05-16T03:57:19;3.88;;;3.40;;
7931;SDS011;4011;49.424;10.894;2023-05-16T04:02:40;3.60;;;3.30;;
7931;SDS011;4011;49.424;10.894;2023-05-16T04:08:04;3.80;;;3.05;;
7931;SDS011;4011;49.424;10.894;2023-05-16T04:13:26;5.00;;;3.50;;
7931;SDS011;4011;49.424;10.894;2023-05-16T04:18:47;4.07;;;3.67;;
7931;SDS011;4011;49.424;10.894;2023-05-16T04:24:10;5.32;;;4.07;;
7931;SDS011;4011;49.424;10.894;2023-05-16T04:29:32;5.78;;;4.05;;
7931;SDS011;4011;49.424;10.894;2023-05-16T04:34:54;4.78;;;3.60;;
7931;SDS011;4011;49.424;10.894;2023-05-16T04:40:17;5.15;;;4.18;;
7931;SDS011;4011;49.424;10.894;2023-05-16T04:45:39;5.57;;;4.90;;
7931;SDS011;4011;49.424;10.894;2023-05-16T04:51:02;4.93;;;3.75;;
7931;SDS011;4011;49.424;10.894;2023-05-16T04:56:28;4.30;;;3.60;;
7931;SDS011;4011;49.424;10.894;2023-05-16T05:01:52;4.47;;;3.78;;
7931;SDS011;4011;49.424;10.894;2023-05-16T05:07:14;4.60;;;3.50;;
7931;SDS011;4011;49.424;10.894;2023-05-16T05:12:39;5.72;;;3.85;;
7931;SDS011;4011;49.424;10.894;2023-05-16T05:18:02;4.45;;;3.70;;
7931;SDS011;4011;49.424;10.894;2023-05-16T05:23:24;3.90;;;3.40;;
7931;SDS011;4011;49.424;10.894;2023-05-16T05:28:47;4.88;;;3.58;;
7931;SDS011;4011;49.424;10.894;2023-05-16T05:34:08;5.15;;;4.60;;
7931;SDS011;4011;49.424;10.894;2023-05-16T05:39:30;4.97;;;4.47;;
7931;SDS011;4011;49.424;10.894;2023-05-16T05:44:53;5.60;;;3.80;;
7931;SDS011;4011;49.424;10.894;2023-05-16T05:50:15;5.30;;;4.53;;
7931;SDS011;4011;49.424;10.894;2023-05-16T05:55:36;5.57;;;4.35;;
7931;SDS011;4011;49.424;10.894;2023-05-16T06:01:02;5.10;;;4.60;;
7931;SDS011;4011;49.424;10.894;2023-05-16T06:06:26;4.95;;;3.78;;
7931;SDS011;4011;49.424;10.894;2023-05-16T06:11:48;4.68;;;3.90;;
7931;SDS011;4011;49.424;10.894;2023-05-16T06:17:11;4.60;;;3.90;;
7931;SDS011;4011;49.424;10.894;2023-05-16T06:22:33;5.25;;;4.45;;
7931;SDS011;4011;49.424;10.894;2023-05-16T06:27:54;4.45;;;3.65;;
7931;SDS011;4011;49.424;10.894;2023-05-16T06:33:17;4.75;;;3.65;;
7931;SDS011;4011;49.424;10.894;2023-05-16T06:38:39;5.28;;;4.10;;
7931;SDS011;4011;49.424;10.894;2023-05-16T06:44:01;5.20;;;4.60;;
7931;SDS011;4011;49.424;10.894;2023-05-16T06:49:25;5.25;;;4.50;;
7931;SDS011;4011;49.424;10.894;2023-05-16T06:54:46;4.45;;;3.90;;
7931;SDS011;4011;49.424;10.894;2023-05-16T07:00:09;5.00;;;4.18;;
7931;SDS011;4011;49.424;10.894;2023-05-16T07:05:33;6.10;;;4.90;;
7931;SDS011;4011;49.424;10.894;2023-05-16T07:10:55;5.40;;;4.30;;
7931;SDS011;4011;49.424;10.894;2023-05-16T07:16:16;6.47;;;4.80;;
7931;SDS011;4011;49.424;10.894;2023-05-16T07:21:39;4.60;;;4.00;;
7931;SDS011;4011;49.424;10.894;2023-05-16T07:27:03;5.10;;;4.30;;
7931;SDS011;4011;49.424;10.894;2023-05-16T07:32:25;5.60;;;5.10;;
7931;SDS011;4011;49.424;10.894;2023-05-16T07:37:48;5.10;;;4.22;;
7931;SDS011;4011;49.424;10.894;2023-05-16T07:43:10;5.20;;;4.18;;
7931;SDS011;4011;49.424;10.894;2023-05-16T07:48:31;5.13;;;4.30;;
7931;SDS011;4011;49.424;10.894;2023-05-16T07:53:54;5.82;;;4.70;;
7931;SDS011;4011;49.424;10.894;2023-05-16T07:59:16;4.40;;;4.00;;
7931;SDS011;4011;49.424;10.894;2023-05-16T08:04:37;4.93;;;4.40;;
7931;SDS011;4011;49.424;10.894;2023-05-16T08:10:00;4.80;;;4.30;;
7931;SDS011;4011;49.424;10.894;2023-05-16T08:15:25;5.25;;;4.70;;
7931;SDS011;4011;49.424;10.894;2023-05-16T08:20:46;4.35;;;3.83;;
7931;SDS011;4011;49.424;10.894;2023-05-16T08:26:09;5.05;;;4.55;;
7931;SDS011;4011;49.424;10.894;2023-05-16T08:31:31;5.00;;;4.03;;
7931;SDS011;4011;49.424;10.894;2023-05-16T08:36:53;4.80;;;4.25;;
7931;SDS011;4011;49.424;10.894;2023-05-16T08:42:16;5.03;;;4.47;;
7931;SDS011;4011;49.424;10.894;2023-05-16T08:47:38;5.05;;;4.38;;
7931;SDS011;4011;49.424;10.894;2023-05-16T08:53:01;5.20;;;4.55;;
7931;SDS011;4011;49.424;10.894;2023-05-16T08:58:28;5.85;;;4.55;;
7931;SDS011;4011;49.424;10.894;2023-05-16T09:03:50;5.35;;;4.85;;
7931;SDS011;4011;49.424;10.894;2023-05-16T09:09:12;4.57;;;4.18;;
7931;SDS011;4011;49.424;10.894;2023-05-16T09:14:35;6.22;;;4.38;;
7931;SDS011;4011;49.424;10.894;2023-05-16T09:19:57;5.60;;;5.10;;
7931;SDS011;4011;49.424;10.894;2023-05-16T09:25:18;5.38;;;4.88;;
7931;SDS011;4011;49.424;10.894;2023-05-16T09:30:43;5.43;;;4.80;;
7931;SDS011;4011;49.424;10.894;2023-05-16T09:36:06;4.80;;;4.28;;
7931;SDS011;4011;49.424;10.894;2023-05-16T09:41:31;4.93;;;4.43;;
7931;SDS011;4011;49.424;10.894;2023-05-16T09:47:00;6.35;;;4.57;;
7931;SDS011;4011;49.424;10.894;2023-05-16T09:52:25;4.72;;;4.32;;
7931;SDS011;4011;49.424;10.894;2023-05-16T09:57:47;5.18;;;4.68;;
7931;SDS011;4011;49.424;10.894;2023-05-16T10:03:11;5.78;;;5.15;;
7931;SDS011;4011;49.424;10.894;2023-05-16T10:08:33;6.40;;;5.00;;
7931;SDS011;4011;49.424;10.894;2023-05-16T10:13:55;4.75;;;4.13;;
7931;SDS011;4011;49.424;10.894;2023-05-16T10:19:20;5.32;;;4.75;;
7931;SDS011;4011;49.424;10.894;2023-05-16T10:24:42;5.05;;;4.25;;
7931;SDS011;4011;49.424;10.894;2023-05-16T10:30:07;4.82;;;4.32;;
7931;SDS011;4011;49.424;10.894;2023-05-16T10:35:31;7.03;;;4.45;;
7931;SDS011;4011;49.424;10.894;2023-05-16T10:40:53;4.75;;;3.97;;
7931;SDS011;4011;49.424;10.894;2023-05-16T10:46:15;5.53;;;4.28;;
7931;SDS011;4011;49.424;10.894;2023-05-16T10:51:38;5.50;;;5.00;;
7931;SDS011;4011;49.424;10.894;2023-05-16T10:57:02;5.22;;;3.97;;
7931;SDS011;4011;49.424;10.894;2023-05-16T11:02:25;4.82;;;4.07;;
7931;SDS011;4011;49.424;10.894;2023-05-16T11:07:51;4.35;;;3.80;;
7931;SDS011;4011;49.424;10.894;2023-05-16T11:13:23;4.88;;;4.18;;
7931;SDS011;4011;49.424;10.894;2023-05-16T11:24:28;5.82;;;3.50;;
7931;SDS011;4011;49.424;10.894;2023-05-16T11:29:50;4.20;;;3.40;;
7931;SDS011;4011;49.424;10.894;2023-05-16T11:35:12;4.50;;;3.60;;
7931;SDS011;4011;49.424;10.894;2023-05-16T11:40:35;3.90;;;3.50;;
7931;SDS011;4011;49.424;10.894;2023-05-16T11:45:57;5.13;;;4.20;;
7931;SDS011;4011;49.424;10.894;2023-05-16T11:51:18;3.90;;;3.22;;
7931;SDS011;4011;49.424;10.894;2023-05-16T11:56:42;3.63;;;3.13;;
7931;SDS011;4011;49.424;10.894;2023-05-16T12:02:05;4.93;;;3.67;;
7931;SDS011;4011;49.424;10.894;2023-05-16T12:07:28;4.75;;;3.58;;
7931;SDS011;4011;49.424;10.894;2023-05-16T12:12:51;3.80;;;3.28;;
7931;SDS011;4011;49.424;10.894;2023-05-16T12:18:14;3.97;;;3.28;;
7931;SDS011;4011;49.424;10.894;2023-05-16T12:23:35;3.95;;;3.00;;
7931;SDS011;4011;49.424;10.894;2023-05-16T12:28:59;4.13;;;3.17;;
7931;SDS011;4011;49.424;10.894;2023-05-16T12:34:22;3.88;;;3.45;;
7931;SDS011;4011;49.424;10.894;2023-05-16T12:39:44;4.45;;;3.33;;
7931;SDS011;4011;49.424;10.894;2023-05-16T12:45:14;4.15;;;3.38;;
7931;SDS011;4011;49.424;10.894;2023-05-16T12:50:37;4.10;;;3.67;;
7931;SDS011;4011;49.424;10.894;2023-05-16T12:55:59;4.38;;;3.60;;
7931;SDS011;4011;49.424;10.894;2023-05-16T13:01:22;4.57;;;3.33;;
7931;SDS011;4011;49.424;10.894;2023-05-16T13:06:44;4.03;;;3.22;;
7931;SDS011;4011;49.424;10.894;2023-05-16T13:12:07;4.18;;;3.78;;
7931;SDS011;4011;49.424;10.894;2023-05-16T13:17:31;3.60;;;3.20;;
7931;SDS011;4011;49.424;10.894;2023-05-16T13:22:52;3.72;;;3.20;;
7931;SDS011;4011;49.424;10.894;2023-05-16T13:28:14;4.32;;;3.28;;
7931;SDS011;4011;49.424;10.894;2023-05-16T13:33:38;4.30;;;3.28;;
7931;SDS011;4011;49.424;10.894;2023-05-16T13:39:03;4.13;;;3.10;;
7931;SDS011;4011;49.424;10.894;2023-05-16T13:44:25;4.28;;;3.20;;
7931;SDS011;4011;49.424;10.894;2023-05-16T13:49:51;3.70;;;2.70;;
7931;SDS011;4011;49.424;10.894;2023-05-16T13:55:14;4.28;;;3.55;;
7931;SDS011;4011;49.424;10.894;2023-05-16T14:00:36;7.10;;;4.40;;
7931;SDS011;4011;49.424;10.894;2023-05-16T14:06:03;6.75;;;4.32;;
7931;SDS011;4011;49.424;10.894;2023-05-16T14:11:26;6.10;;;4.35;;
7931;SDS011;4011;49.424;10.894;2023-05-16T14:16:48;4.90;;;4.00;;
7931;SDS011;4011;49.424;10.894;2023-05-16T14:22:18;5.45;;;3.60;;
7931;SDS011;4011;49.424;10.894;2023-05-16T14:27:40;4.80;;;3.38;;
7931;SDS011;4011;49.424;10.894;2023-05-16T14:33:05;4.97;;;3.55;;
7931;SDS011;4011;49.424;10.894;2023-05-16T14:38:29;4.75;;;3.35;;
7931;SDS011;4011;49.424;10.894;2023-05-16T14:43:51;4.78;;;2.70;;
7931;SDS011;4011;49.424;10.894;2023-05-16T14:49:12;3.92;;;3.10;;
7931;SDS011;4011;49.424;10.894;2023-05-16T14:54:36;3.65;;;2.67;;
7931;SDS011;4011;49.424;10.894;2023-05-16T14:59:58;4.22;;;3.08;;
7931;SDS011;4011;49.424;10.894;2023-05-16T15:05:20;3.47;;;2.50;;
7931;SDS011;4011;49.424;10.894;2023-05-16T15:16:10;3.38;;;2.25;;
7931;SDS011;4011;49.424;10.894;2023-05-16T15:21:36;4.40;;;2.90;;
7931;SDS011;4011;49.424;10.894;2023-05-16T15:26:58;4.03;;;2.28;;
7931;SDS011;4011;49.424;10.894;2023-05-16T15:32:21;3.40;;;2.38;;
7931;SDS011;4011;49.424;10.894;2023-05-16T15:37:43;3.67;;;2.30;;
7931;SDS011;4011;49.424;10.894;2023-05-16T15:43:04;3.33;;;2.60;;
7931;SDS011;4011;49.424;10.894;2023-05-16T15:48:28;3.60;;;2.40;;
7931;SDS011;4011;49.424;10.894;2023-05-16T15:53:49;3.08;;;2.20;;
7931;SDS011;4011;49.424;10.894;2023-05-16T15:59:11;3.17;;;2.10;;
7931;SDS011;4011;49.424;10.894;2023-05-16T16:04:33;3.08;;;2.28;;
7931;SDS011;4011;49.424;10.894;2023-05-16T16:09:55;3.40;;;2.42;;
7931;SDS011;4011;49.424;10.894;2023-05-16T16:15:18;3.55;;;2.40;;
7931;SDS011;4011;49.424;10.894;2023-05-16T16:20:41;4.97;;;2.33;;
7931;SDS011;4011;49.424;10.894;2023-05-16T16:26:05;4.30;;;2.72;;
7931;SDS011;4011;49.424;10.894;2023-05-16T16:31:27;3.28;;;2.90;;
7931;SDS011;4011;49.424;10.894;2023-05-16T16:36:51;3.85;;;2.50;;
7931;SDS011;4011;49.424;10.894;2023-05-16T16:42:13;3.78;;;2.15;;
7931;SDS011;4011;49.424;10.894;2023-05-16T16:47:35;4.10;;;2.30;;
7931;SDS011;4011;49.424;10.894;2023-05-16T16:53:03;3.63;;;2.55;;
7931;SDS011;4011;49.424;10.894;2023-05-16T16:58:25;4.55;;;2.20;;
7931;SDS011;4011;49.424;10.894;2023-05-16T17:03:47;3.00;;;2.10;;
7931;SDS011;4011;49.424;10.894;2023-05-16T17:09:11;3.70;;;2.38;;
7931;SDS011;4011;49.424;10.894;2023-05-16T17:19:56;4.20;;;2.35;;
7931;SDS011;4011;49.424;10.894;2023-05-16T17:25:19;3.63;;;2.17;;
7931;SDS011;4011;49.424;10.894;2023-05-16T17:30:41;3.00;;;1.98;;
7931;SDS011;4011;49.424;10.894;2023-05-16T17:36:03;3.58;;;2.45;;
7931;SDS011;4011;49.424;10.894;2023-05-16T17:41:26;3.72;;;2.50;;
7931;SDS011;4011;49.424;10.894;2023-05-16T17:46:47;3.65;;;2.20;;
7931;SDS011;4011;49.424;10.894;2023-05-16T17:52:09;3.75;;;2.30;;
7931;SDS011;4011;49.424;10.894;2023-05-16T17:57:32;2.85;;;1.92;;
7931;SDS011;4011;49.424;10.894;2023-05-16T18:02:54;4.47;;;2.72;;
7931;SDS011;4011;49.424;10.894;2023-05-16T18:08:16;3.80;;;2.13;;
7931;SDS011;4011;49.424;10.894;2023-05-16T18:13:39;2.80;;;2.03;;
7931;SDS011;4011;49.424;10.894;2023-05-16T18:19:01;3.38;;;1.85;;
7931;SDS011;4011;49.424;10.894;2023-05-16T18:24:24;3.55;;;2.65;;
7931;SDS011;4011;49.424;10.894;2023-05-16T18:29:47;4.53;;;2.72;;
7931;SDS011;4011;49.424;10.894;2023-05-16T18:35:09;3.58;;;2.00;;
7931;SDS011;4011;49.424;10.894;2023-05-16T18:40:32;3.47;;;2.10;;
7931;SDS011;4011;49.424;10.894;2023-05-16T18:45:55;3.17;;;2.42;;
7931;SDS011;4011;49.424;10.894;2023-05-16T18:51:16;3.60;;;2.10;;
7931;SDS011;4011;49.424;10.894;2023-05-16T18:56:39;3.80;;;2.30;;
7931;SDS011;4011;49.424;10.894;2023-05-16T19:02:06;4.05;;;2.20;;
7931;SDS011;4011;49.424;10.894;2023-05-16T19:07:32;3.45;;;2.42;;
7931;SDS011;4011;49.424;10.894;2023-05-16T19:12:54;3.60;;;2.20;;
7931;SDS011;4011;49.424;10.894;2023-05-16T19:18:18;3.15;;;2.00;;
7931;SDS011;4011;49.424;10.894;2023-05-16T19:23:39;3.15;;;1.80;;
7931;SDS011;4011;49.424;10.894;2023-05-16T19:29:01;3.90;;;2.60;;
7931;SDS011;4011;49.424;10.894;2023-05-16T19:34:26;3.92;;;2.40;;
7931;SDS011;4011;49.424;10.894;2023-05-16T19:39:48;3.13;;;1.95;;
7931;SDS011;4011;49.424;10.894;2023-05-16T19:45:10;3.17;;;2.00;;
7931;SDS011;4011;49.424;10.894;2023-05-16T19:50:33;3.95;;;2.45;;
7931;SDS011;4011;49.424;10.894;2023-05-16T19:55:55;4.53;;;2.50;;
7931;SDS011;4011;49.424;10.894;2023-05-16T20:01:17;3.25;;;2.00;;
7931;SDS011;4011;49.424;10.894;2023-05-16T20:06:40;3.40;;;1.80;;
7931;SDS011;4011;49.424;10.894;2023-05-16T20:12:01;3.72;;;2.03;;
7931;SDS011;4011;49.424;10.894;2023-05-16T20:17:23;3.40;;;2.13;;
7931;SDS011;4011;49.424;10.894;2023-05-16T20:22:47;3.85;;;2.00;;
7931;SDS011;4011;49.424;10.894;2023-05-16T20:28:08;3.90;;;2.10;;
7931;SDS011;4011;49.424;10.894;2023-05-16T20:33:30;4.03;;;2.25;;
7931;SDS011;4011;49.424;10.894;2023-05-16T20:38:53;4.40;;;2.47;;
7931;SDS011;4011;49.424;10.894;2023-05-16T20:44:15;4.07;;;1.80;;
7931;SDS011;4011;49.424;10.894;2023-05-16T20:49:37;3.50;;;1.75;;
7931;SDS011;4011;49.424;10.894;2023-05-16T20:55:00;4.13;;;1.80;;
7931;SDS011;4011;49.424;10.894;2023-05-16T21:00:22;3.67;;;2.45;;
7931;SDS011;4011;49.424;10.894;2023-05-16T21:05:43;4.35;;;2.50;;
7931;SDS011;4011;49.424;10.894;2023-05-16T21:11:06;4.05;;;1.85;;
7931;SDS011;4011;49.424;10.894;2023-05-16T21:16:27;3.67;;;1.98;;
7931;SDS011;4011;49.424;10.894;2023-05-16T21:21:50;3.53;;;1.90;;
7931;SDS011;4011;49.424;10.894;2023-05-16T21:27:13;4.32;;;2.47;;
7931;SDS011;4011;49.424;10.894;2023-05-16T21:32:34;2.72;;;1.80;;
7931;SDS011;4011;49.424;10.894;2023-05-16T21:37:55;4.63;;;1.95;;
7931;SDS011;4011;49.424;10.894;2023-05-16T21:43:18;4.22;;;2.00;;
7931;SDS011;4011;49.424;10.894;2023-05-16T21:48:40;2.85;;;2.35;;
7931;SDS011;4011;49.424;10.894;2023-05-16T21:54:01;3.53;;;2.30;;
7931;SDS011;4011;49.424;10.894;2023-05-16T21:59:24;4.47;;;2.13;;
7931;SDS011;4011;49.424;10.894;2023-05-16T22:04:45;4.18;;;2.00;;
7931;SDS011;4011;49.424;10.894;2023-05-16T22:10:08;4.55;;;2.50;;
7931;SDS011;4011;49.424;10.894;2023-05-16T22:15:32;5.38;;;2.53;;
7931;SDS011;4011;49.424;10.894;2023-05-16T22:20:53;6.10;;;2.47;;
7931;SDS011;4011;49.424;10.894;2023-05-16T22:26:15;6.90;;;2.38;;
7931;SDS011;4011;49.424;10.894;2023-05-16T22:31:37;4.75;;;2.20;;
7931;SDS011;4011;49.424;10.894;2023-05-16T22:36:59;5.82;;;2.58;;
7931;SDS011;4011;49.424;10.894;2023-05-16T22:42:20;4.50;;;2.20;;
7931;SDS011;4011;49.424;10.894;2023-05-16T22:47:43;3.72;;;2.10;;
7931;SDS011;4011;49.424;10.894;2023-05-16T22:53:06;4.78;;;2.00;;
7931;SDS011;4011;49.424;10.894;2023-05-16T22:58:27;4.72;;;2.65;;
7931;SDS011;4011;49.424;10.894;2023-05-16T23:03:50;4.20;;;2.20;;
7931;SDS011;4011;49.424;10.894;2023-05-16T23:09:12;4.68;;;2.10;;
7931;SDS011;4011;49.424;10.894;2023-05-16T23:14:33;3.78;;;1.92;;
7931;SDS011;4011;49.424;10.894;2023-05-16T23:19:56;4.05;;;2.15;;
7931;SDS011;4011;49.424;10.894;2023-05-16T23:25:18;3.97;;;2.72;;
7931;SDS011;4011;49.424;10.894;2023-05-16T23:30:39;4.30;;;2.00;;
7931;SDS011;4011;49.424;10.894;2023-05-16T23:36:02;4.10;;;2.13;;
7931;SDS011;4011;49.424;10.894;2023-05-16T23:41:23;5.28;;;1.95;;
7931;SDS011;4011;49.424;10.894;2023-05-16T23:46:45;5.38;;;2.40;;
7931;SDS011;4011;49.424;10.894;2023-05-16T23:52:08;3.10;;;2.05;;
7931;SDS011;4011;49.424;10.894;2023-05-16T23:57:29;3.92;;;1.80;;
